Time;durP1;ratioP1;P1;durP2;ratioP2;P2;SDS_P1;SDS_P2;PMS_P1;PMS_P2;Temp;Humidity;BMP_temperature;BMP_pressure;BME280_temperature;BME280_humidity;BME280_pressure;Samples;Min_cycle;Max_cycle;Signal;HPM_P1;HPM_P2
2020/12/29 00:00:23;;;;;;;2.73;2.57;;;20.30;47.20;;;;;;5056850;28;20539;-67
2020/12/29 00:02:50;;;;;;;2.67;2.57;;;20.30;47.30;;;;;;5050219;28;20468;-67
2020/12/29 00:05:16;;;;;;;2.50;2.40;;;20.30;47.30;;;;;;5047381;28;20481;-67
2020/12/29 00:07:53;;;;;;;2.20;2.10;;;20.30;47.20;;;;;;5060585;28;20502;-68
2020/12/29 00:10:19;;;;;;;2.40;2.20;;;20.30;47.30;;;;;;5055720;28;20480;-69
2020/12/29 00:12:45;;;;;;;2.50;2.20;;;20.30;47.30;;;;;;5056137;28;20470;-68
2020/12/29 00:15:12;;;;;;;2.90;2.70;;;20.30;47.30;;;;;;5055678;28;20485;-67
2020/12/29 00:17:39;;;;;;;2.60;2.50;;;20.30;48.10;;;;;;5053443;28;21049;-66
2020/12/29 00:20:05;;;;;;;2.47;2.27;;;20.30;47.30;;;;;;5054980;28;20512;-66
2020/12/29 00:22:32;;;;;;;2.23;2.13;;;20.30;47.30;;;;;;5052434;28;21031;-67
2020/12/29 00:24:58;;;;;;;2.00;1.90;;;20.30;47.30;;;;;;5055349;28;20484;-67
2020/12/29 00:27:24;;;;;;;2.70;2.50;;;20.30;47.20;;;;;;5061768;28;20485;-68
2020/12/29 00:29:51;;;;;;;2.30;2.13;;;20.30;47.20;;;;;;5052755;28;20482;-67
2020/12/29 00:32:19;;;;;;;2.63;2.27;;;20.30;47.30;;;;;;5056349;28;20482;-67
2020/12/29 00:34:46;;;;;;;2.40;2.30;;;20.30;47.30;;;;;;5053504;28;20469;-68
2020/12/29 00:37:13;;;;;;;2.77;1.90;;;20.30;47.40;;;;;;5068436;28;20493;-68
2020/12/29 00:39:39;;;;;;;2.00;1.90;;;20.30;47.30;;;;;;5058163;28;20481;-67
2020/12/29 00:42:05;;;;;;;2.13;2.03;;;20.40;47.20;;;;;;5052098;28;20492;-67
2020/12/29 00:44:31;;;;;;;3.17;2.87;;;20.30;47.10;;;;;;5058586;28;20482;-67
2020/12/29 00:46:57;;;;;;;2.17;2.07;;;20.30;47.10;;;;;;5057569;28;20489;-66
2020/12/29 00:49:23;;;;;;;2.40;2.30;;;20.30;47.00;;;;;;5051423;28;21007;-67
2020/12/29 00:51:52;;;;;;;2.87;2.67;;;20.40;47.20;;;;;;5062768;28;20485;-67
2020/12/29 00:54:18;;;;;;;2.20;2.10;;;20.30;47.10;;;;;;5059721;28;20469;-66
2020/12/29 00:56:44;;;;;;;2.00;1.90;;;20.30;47.10;;;;;;5051670;28;20490;-67
2020/12/29 00:59:10;;;;;;;1.97;1.87;;;20.30;47.20;;;;;;5060888;28;20486;-67
2020/12/29 01:01:36;;;;;;;2.07;1.97;;;20.30;47.20;;;;;;5058023;28;20474;-67
2020/12/29 01:04:02;;;;;;;2.10;2.00;;;20.30;47.30;;;;;;5057610;28;20493;-67
2020/12/29 01:06:29;;;;;;;2.20;2.00;;;20.30;47.30;;;;;;5059909;28;21592;-67
2020/12/29 01:08:56;;;;;;;2.40;2.30;;;20.20;47.30;;;;;;5058043;28;20494;-67
2020/12/29 01:11:22;;;;;;;2.63;2.43;;;20.20;47.30;;;;;;5051435;28;20496;-67
2020/12/29 01:13:48;;;;;;;2.10;2.00;;;20.20;47.40;;;;;;5059067;28;21038;-67
2020/12/29 01:16:14;;;;;;;1.33;1.23;;;20.20;47.40;;;;;;5059679;28;21190;-67
2020/12/29 01:18:40;;;;;;;1.93;1.83;;;20.20;47.40;;;;;;5056713;28;20523;-66
2020/12/29 01:21:08;;;;;;;2.10;2.00;;;20.20;47.40;;;;;;5057348;28;21657;-67
2020/12/29 01:23:35;;;;;;;2.20;1.47;;;20.30;47.40;;;;;;5058168;28;20474;-65
2020/12/29 01:26:02;;;;;;;1.90;1.70;;;20.30;47.50;;;;;;5059531;28;20485;-67
2020/12/29 01:28:28;;;;;;;1.93;1.83;;;20.30;48.00;;;;;;5057467;28;21447;-67
2020/12/29 01:30:54;;;;;;;1.60;1.50;;;20.30;47.40;;;;;;5057587;28;20878;-66
2020/12/29 01:33:20;;;;;;;2.07;1.97;;;20.30;47.50;;;;;;5059361;28;20860;-67
2020/12/29 01:35:46;;;;;;;2.13;2.03;;;20.30;47.50;;;;;;5052796;28;20550;-66
2020/12/29 01:38:12;;;;;;;1.80;1.70;;;20.30;47.40;;;;;;5061345;28;20493;-67
2020/12/29 01:40:39;;;;;;;1.60;1.50;;;20.30;47.20;;;;;;5058562;28;20477;-67
2020/12/29 01:43:06;;;;;;;1.60;1.60;;;20.30;47.30;;;;;;5056666;28;20492;-67
2020/12/29 01:45:32;;;;;;;1.73;1.73;;;20.30;47.30;;;;;;5057937;28;21034;-67
2020/12/29 01:47:58;;;;;;;2.03;1.73;;;20.30;47.40;;;;;;5057745;28;20504;-67
2020/12/29 01:50:24;;;;;;;1.90;1.80;;;20.30;47.30;;;;;;5059436;28;20485;-66
2020/12/29 01:52:56;;;;;;;2.00;1.90;;;20.30;47.20;;;;;;5056002;28;21016;-67
2020/12/29 01:55:22;;;;;;;1.80;1.73;;;20.30;47.30;;;;;;5056558;28;20866;-68
2020/12/29 01:57:48;;;;;;;1.80;1.80;;;20.30;47.30;;;;;;5057693;28;20481;-66
2020/12/29 02:00:15;;;;;;;1.40;1.40;;;20.30;47.00;;;;;;5057943;28;20579;-66
2020/12/29 02:02:41;;;;;;;1.70;1.70;;;20.30;47.20;;;;;;5057580;28;20501;-66
2020/12/29 02:05:07;;;;;;;1.40;1.40;;;20.30;47.10;;;;;;5056233;28;20496;-68
2020/12/29 02:07:33;;;;;;;1.77;1.67;;;20.30;47.20;;;;;;5050568;28;21012;-67
2020/12/29 02:10:00;;;;;;;1.53;1.53;;;20.30;47.20;;;;;;5058704;28;20485;-66
2020/12/29 02:12:27;;;;;;;1.80;1.70;;;20.20;47.10;;;;;;5064804;28;20497;-67
2020/12/29 02:14:53;;;;;;;1.87;1.77;;;20.20;47.20;;;;;;5051196;28;20482;-67
2020/12/29 02:17:20;;;;;;;1.80;1.70;;;20.20;47.20;;;;;;5056380;28;20490;-67
2020/12/29 02:19:47;;;;;;;2.60;2.50;;;20.20;47.20;;;;;;5057867;28;20527;-66
2020/12/29 02:22:20;;;;;;;1.57;1.57;;;20.20;47.30;;;;;;5058741;28;20516;-67
2020/12/29 02:24:50;;;;;;;1.23;1.23;;;20.10;47.30;;;;;;5036430;28;20930;-67
2020/12/29 02:27:16;;;;;;;1.57;1.47;;;20.20;47.40;;;;;;5037701;28;20969;-66
2020/12/29 02:29:42;;;;;;;1.60;1.50;;;20.20;47.30;;;;;;5036836;28;20479;-66
2020/12/29 02:32:09;;;;;;;1.93;1.87;;;20.20;47.30;;;;;;5036002;28;20487;-67
2020/12/29 02:34:37;;;;;;;1.20;1.20;;;20.20;47.30;;;;;;5034081;28;20472;-67
2020/12/29 02:37:06;;;;;;;1.37;1.37;;;20.20;47.30;;;;;;5035183;28;20570;-67
2020/12/29 02:39:34;;;;;;;1.80;1.70;;;20.20;47.30;;;;;;5033657;28;20505;-67
2020/12/29 02:42:00;;;;;;;1.60;1.50;;;20.20;47.20;;;;;;5035469;28;20516;-66
2020/12/29 02:44:26;;;;;;;1.33;1.33;;;20.20;47.20;;;;;;5031472;28;20474;-67
2020/12/29 02:46:52;;;;;;;1.80;1.73;;;20.20;47.30;;;;;;5026347;28;21000;-66
2020/12/29 02:49:18;;;;;;;1.70;1.60;;;20.20;47.20;;;;;;5037561;28;20490;-67
2020/12/29 02:51:45;;;;;;;1.40;1.40;;;20.10;47.00;;;;;;5035623;28;20478;-67
2020/12/29 02:54:11;;;;;;;1.33;1.23;;;20.20;47.10;;;;;;5032480;28;20466;-66
2020/12/29 02:56:38;;;;;;;2.10;1.50;;;20.20;47.20;;;;;;5034843;28;20479;-67
2020/12/29 02:59:05;;;;;;;1.73;1.63;;;20.20;47.20;;;;;;5033039;28;20506;-68
2020/12/29 03:01:31;;;;;;;1.70;1.60;;;20.20;47.10;;;;;;5032761;28;20490;-68
2020/12/29 03:03:57;;;;;;;1.80;1.70;;;20.20;47.20;;;;;;5032410;28;20482;-67
2020/12/29 03:06:23;;;;;;;1.33;1.23;;;20.20;48.00;;;;;;5033701;28;20467;-67
2020/12/29 03:08:49;;;;;;;1.97;1.87;;;20.20;47.20;;;;;;5038157;28;21918;-67
2020/12/29 03:11:15;;;;;;;1.23;1.13;;;20.20;47.10;;;;;;5027611;28;20498;-67
2020/12/29 03:13:42;;;;;;;1.50;1.50;;;20.10;47.00;;;;;;5041279;28;21054;-67
2020/12/29 03:16:09;;;;;;;1.60;1.50;;;20.10;47.00;;;;;;5035155;28;21597;-66
2020/12/29 03:18:35;;;;;;;1.47;1.40;;;20.10;47.00;;;;;;5034728;28;20475;-66
2020/12/29 03:21:01;;;;;;;2.10;2.00;;;20.10;47.10;;;;;;5037868;28;20569;-67
2020/12/29 03:23:27;;;;;;;1.40;1.40;;;20.10;47.10;;;;;;5032566;28;21013;-66
2020/12/29 03:25:53;;;;;;;1.80;1.70;;;20.10;47.10;;;;;;5036542;28;21120;-67
2020/12/29 03:28:19;;;;;;;1.10;1.10;;;20.10;47.30;;;;;;5035366;28;21014;-67
2020/12/29 03:30:46;;;;;;;1.60;1.50;;;20.10;47.30;;;;;;5023699;28;20888;-67
2020/12/29 03:33:13;;;;;;;2.10;2.00;;;20.10;47.20;;;;;;5035373;28;20550;-67
2020/12/29 03:35:39;;;;;;;1.47;1.47;;;20.10;47.10;;;;;;5029080;28;20494;-67
2020/12/29 03:38:05;;;;;;;1.87;1.80;;;20.10;47.20;;;;;;5034906;28;20541;-66
2020/12/29 03:40:31;;;;;;;1.70;1.60;;;20.10;47.10;;;;;;5037048;28;20495;-68
2020/12/29 03:42:57;;;;;;;1.50;1.40;;;20.10;47.30;;;;;;5033241;28;20494;-65
2020/12/29 03:45:23;;;;;;;1.60;1.60;;;20.10;47.40;;;;;;5037534;28;20473;-67
2020/12/29 03:47:50;;;;;;;1.60;1.53;;;20.00;47.10;;;;;;5033564;28;20485;-67
2020/12/29 03:50:16;;;;;;;1.33;1.33;;;20.10;47.10;;;;;;5035576;28;20916;-67
2020/12/29 03:52:42;;;;;;;1.53;1.43;;;20.10;48.00;;;;;;5033686;28;20483;-67
2020/12/29 03:55:09;;;;;;;1.10;1.10;;;20.10;47.30;;;;;;5034916;28;20478;-67
2020/12/29 03:57:35;;;;;;;1.67;1.60;;;20.10;47.40;;;;;;5032120;28;20479;-67
2020/12/29 04:00:01;;;;;;;1.60;1.50;;;20.10;47.10;;;;;;5036741;28;20490;-66
2020/12/29 04:02:27;;;;;;;1.60;1.50;;;20.10;47.40;;;;;;5042846;28;20479;-67
2020/12/29 04:04:54;;;;;;;1.73;1.63;;;20.10;47.20;;;;;;5025430;28;20471;-68
2020/12/29 04:07:20;;;;;;;1.73;1.63;;;20.10;47.30;;;;;;5038104;28;21065;-67
2020/12/29 04:09:46;;;;;;;1.57;1.50;;;20.10;47.10;;;;;;5040927;28;21106;-67
2020/12/29 04:12:12;;;;;;;1.30;1.30;;;20.10;47.00;;;;;;5036252;28;20582;-67
2020/12/29 04:14:38;;;;;;;1.23;1.23;;;20.10;47.00;;;;;;5037664;28;20482;-66
2020/12/29 04:17:05;;;;;;;1.13;1.10;;;20.10;46.90;;;;;;5037531;28;20478;-67
2020/12/29 04:19:31;;;;;;;1.37;1.37;;;20.10;46.70;;;;;;5037501;28;20536;-67
2020/12/29 04:21:58;;;;;;;1.30;1.30;;;20.20;46.80;;;;;;5038333;28;20532;-67
2020/12/29 04:24:24;;;;;;;1.70;1.60;;;20.20;46.80;;;;;;5043406;28;20475;-67
2020/12/29 04:26:50;;;;;;;1.70;1.60;;;20.20;46.80;;;;;;5034401;28;20474;-66
2020/12/29 04:29:16;;;;;;;1.33;1.33;;;20.20;46.80;;;;;;5036453;28;20497;-67
2020/12/29 04:31:42;;;;;;;1.20;1.20;;;20.30;46.80;;;;;;5040423;28;20508;-68
2020/12/29 04:34:08;;;;;;;1.40;1.40;;;20.30;46.90;;;;;;5038582;28;21016;-67
2020/12/29 04:36:34;;;;;;;1.47;1.37;;;20.20;46.80;;;;;;5032469;28;20867;-67
2020/12/29 04:39:01;;;;;;;1.10;1.10;;;20.30;46.80;;;;;;5038145;28;20827;-66
2020/12/29 04:41:28;;;;;;;1.47;1.40;;;20.30;46.90;;;;;;5038409;28;21061;-66
2020/12/29 04:43:55;;;;;;;1.13;1.13;;;20.30;46.90;;;;;;5035857;28;20974;-67
2020/12/29 04:46:21;;;;;;;1.57;1.47;;;20.30;46.90;;;;;;5035953;28;20475;-67
2020/12/29 04:48:48;;;;;;;1.00;1.00;;;20.30;46.90;;;;;;5040222;28;20471;-67
2020/12/29 04:51:14;;;;;;;1.60;1.50;;;20.30;46.90;;;;;;5037412;28;20857;-67
2020/12/29 04:53:40;;;;;;;1.00;1.00;;;20.40;46.70;;;;;;5035850;28;20483;-66
2020/12/29 04:56:08;;;;;;;1.67;1.57;;;20.40;46.70;;;;;;5037343;28;20493;-67
2020/12/29 04:58:35;;;;;;;1.27;1.27;;;20.40;46.60;;;;;;5037284;28;20494;-67
2020/12/29 05:01:06;;;;;;;1.30;1.30;;;20.40;46.60;;;;;;5035776;28;20486;-68
2020/12/29 05:03:45;;;;;;;1.60;1.50;;;20.40;46.60;;;;;;5033448;28;20830;-66
2020/12/29 05:06:11;;;;;;;1.87;1.80;;;20.40;46.70;;;;;;5034609;28;20494;-67
2020/12/29 05:08:37;;;;;;;1.53;1.43;;;20.30;46.80;;;;;;5037225;28;20485;-67
2020/12/29 05:11:04;;;;;;;1.30;1.30;;;20.30;46.90;;;;;;5033404;28;20508;-66
2020/12/29 05:13:31;;;;;;;1.60;1.50;;;20.30;46.90;;;;;;5039995;28;20524;-66
2020/12/29 05:15:57;;;;;;;1.53;1.43;;;20.30;46.90;;;;;;5035657;28;20487;-67
2020/12/29 05:18:23;;;;;;;1.47;1.47;;;20.30;46.90;;;;;;5039632;28;20479;-67
2020/12/29 05:20:49;;;;;;;1.20;1.20;;;20.30;46.90;;;;;;5035411;28;20497;-67
2020/12/29 05:23:16;;;;;;;1.77;1.67;;;20.30;46.90;;;;;;5036427;28;20494;-67
2020/12/29 05:25:45;;;;;;;1.50;1.50;;;20.30;46.90;;;;;;5038483;28;20471;-68
2020/12/29 05:28:11;;;;;;;1.53;1.50;;;20.30;46.80;;;;;;5034378;28;20495;-67
2020/12/29 05:30:39;;;;;;;1.87;1.77;;;20.40;46.60;;;;;;5031200;28;20483;-67
2020/12/29 05:33:10;;;;;;;1.50;1.40;;;20.40;46.50;;;;;;5038529;28;20478;-66
2020/12/29 05:35:36;;;;;;;1.80;1.73;;;20.50;46.50;;;;;;5033333;28;20478;-67
2020/12/29 05:38:03;;;;;;;1.50;1.40;;;20.50;46.50;;;;;;5029924;28;21137;-67
2020/12/29 05:40:30;;;;;;;1.10;1.10;;;20.50;46.40;;;;;;5041596;28;20483;-67
2020/12/29 05:42:57;;;;;;;1.67;1.57;;;20.50;46.50;;;;;;5029344;28;20477;-66
2020/12/29 05:45:24;;;;;;;1.23;1.23;;;20.50;46.40;;;;;;5036949;28;20501;-67
2020/12/29 05:47:53;;;;;;;1.73;1.73;;;20.50;46.40;;;;;;5034150;28;20490;-66
2020/12/29 05:50:20;;;;;;;1.43;1.33;;;20.40;46.30;;;;;;5035037;28;20483;-68
2020/12/29 05:52:47;;;;;;;1.63;1.60;;;20.40;46.30;;;;;;5034963;28;20478;-67
2020/12/29 05:55:13;;;;;;;1.53;1.43;;;20.40;46.30;;;;;;5033915;28;21013;-66
2020/12/29 05:57:40;;;;;;;1.37;1.37;;;20.40;46.30;;;;;;5033646;28;20944;-67
2020/12/29 06:00:06;;;;;;;1.70;1.63;;;20.40;46.40;;;;;;5027003;28;20541;-65
2020/12/29 06:02:32;;;;;;;1.67;1.57;;;20.30;46.40;;;;;;5042780;28;20540;-67
2020/12/29 06:04:59;;;;;;;1.50;1.50;;;20.40;46.50;;;;;;5036172;28;20982;-67
2020/12/29 06:07:25;;;;;;;2.10;2.10;;;20.40;46.40;;;;;;5036112;28;20469;-66
2020/12/29 06:09:51;;;;;;;1.67;1.67;;;20.40;46.40;;;;;;5040154;28;20479;-67
2020/12/29 06:12:26;;;;;;;1.87;1.77;;;20.40;46.30;;;;;;5031723;28;20862;-68
2020/12/29 06:14:52;;;;;;;1.40;1.40;;;20.50;46.50;;;;;;5033120;28;20491;-67
2020/12/29 06:17:19;;;;;;;1.67;1.67;;;20.50;46.40;;;;;;5039440;28;20490;-68
2020/12/29 06:19:52;;;;;;;1.37;1.37;;;20.50;46.30;;;;;;5038290;28;20505;-68
2020/12/29 06:22:19;;;;;;;1.40;1.30;;;20.50;46.30;;;;;;5035454;28;20498;-67
2020/12/29 06:24:45;;;;;;;1.70;1.60;;;20.50;46.30;;;;;;5038827;28;20475;-67
2020/12/29 06:27:12;;;;;;;1.80;1.70;;;20.50;46.20;;;;;;5042148;28;20498;-67
2020/12/29 06:29:39;;;;;;;1.70;1.70;;;20.50;46.10;;;;;;5033529;28;20519;-67
2020/12/29 06:32:09;;;;;;;1.70;1.60;;;20.50;46.20;;;;;;5035923;28;20483;-67
2020/12/29 06:34:36;;;;;;;1.70;1.70;;;20.50;46.20;;;;;;5037853;28;20498;-66
2020/12/29 06:37:07;;;;;;;1.27;1.27;;;20.50;46.20;;;;;;5033134;28;20489;-67
2020/12/29 06:39:35;;;;;;;1.70;1.60;;;20.50;46.40;;;;;;5043473;28;20484;-66
2020/12/29 06:42:02;;;;;;;1.70;1.60;;;20.40;46.20;;;;;;5050785;28;20490;-66
2020/12/29 06:44:32;;;;;;;1.40;1.40;;;20.40;46.30;;;;;;5037895;28;20510;-67
2020/12/29 06:46:58;;;;;;;1.20;1.20;;;20.40;46.30;;;;;;5024345;28;20488;-67
2020/12/29 06:49:24;;;;;;;1.60;1.50;;;20.50;46.30;;;;;;5061380;28;20487;-67
2020/12/29 06:52:13;;;;;;;1.40;1.40;;;20.50;46.30;;;;;;5033446;28;20483;-68
2020/12/29 06:54:47;;;;;;;1.83;1.73;;;20.50;46.30;;;;;;5031800;28;20474;-67
2020/12/29 06:57:13;;;;;;;2.30;1.90;;;20.60;46.20;;;;;;5038627;28;20578;-67
2020/12/29 06:59:39;;;;;;;1.20;1.20;;;20.50;46.20;;;;;;5035115;28;21639;-65
2020/12/29 07:02:15;;;;;;;1.37;1.33;;;20.60;46.10;;;;;;5036115;28;20477;-66
2020/12/29 07:04:50;;;;;;;1.83;1.73;;;20.60;46.10;;;;;;5045051;28;20497;-67
2020/12/29 07:07:23;;;;;;;1.30;1.20;;;20.60;46.10;;;;;;5054943;28;20485;-67
2020/12/29 07:09:50;;;;;;;1.50;1.50;;;20.50;46.00;;;;;;5030202;28;20544;-67
2020/12/29 07:12:17;;;;;;;1.77;1.67;;;20.50;46.10;;;;;;5060158;28;20490;-67
2020/12/29 07:14:43;;;;;;;1.47;1.37;;;20.50;46.20;;;;;;5037279;28;21126;-67
2020/12/29 07:17:10;;;;;;;1.50;1.50;;;20.50;46.20;;;;;;5032264;28;20900;-67
2020/12/29 07:19:37;;;;;;;1.60;1.50;;;20.50;46.20;;;;;;5037026;28;20489;-67
2020/12/29 07:22:09;;;;;;;1.43;1.43;;;20.50;46.20;;;;;;5034679;28;21115;-67
2020/12/29 07:24:35;;;;;;;1.77;1.67;;;20.50;46.30;;;;;;5037408;28;21222;-67
2020/12/29 07:27:03;;;;;;;1.10;1.10;;;20.50;46.30;;;;;;5035400;28;21060;-67
2020/12/29 07:29:29;;;;;;;1.23;1.23;;;20.50;46.20;;;;;;5035610;28;20479;-68
2020/12/29 07:31:59;;;;;;;1.70;1.70;;;20.50;46.40;;;;;;5036016;28;20475;-65
2020/12/29 07:34:25;;;;;;;1.40;1.40;;;20.50;46.20;;;;;;5055003;28;20466;-68
2020/12/29 07:36:51;;;;;;;1.13;1.13;;;20.50;46.20;;;;;;5037479;28;20479;-67
2020/12/29 07:39:18;;;;;;;2.67;1.23;;;20.50;46.30;;;;;;5034119;28;20486;-66
2020/12/29 07:41:44;;;;;;;2.73;1.77;;;20.50;46.20;;;;;;5033922;28;20480;-67
2020/12/29 07:44:11;;;;;;;1.87;1.77;;;20.40;46.20;;;;;;5030823;28;20490;-68
2020/12/29 07:46:37;;;;;;;1.67;1.57;;;20.50;46.30;;;;;;5036937;28;20479;-67
2020/12/29 07:49:03;;;;;;;1.23;1.23;;;20.50;46.40;;;;;;5032904;28;20486;-67
2020/12/29 07:51:29;;;;;;;1.30;1.30;;;20.50;46.40;;;;;;5037338;28;20479;-67
2020/12/29 07:54:03;;;;;;;1.50;1.50;;;20.50;46.30;;;;;;5034570;28;20482;-67
2020/12/29 07:56:29;;;;;;;4.00;1.83;;;20.50;46.30;;;;;;5044966;28;20973;-66
2020/12/29 07:59:06;;;;;;;1.40;1.40;;;20.50;46.40;;;;;;5042697;28;20477;-67
2020/12/29 08:01:33;;;;;;;1.20;1.20;;;20.40;46.40;;;;;;5029045;28;20485;-67
2020/12/29 08:03:59;;;;;;;2.00;1.90;;;20.40;46.40;;;;;;5035694;28;20478;-66
2020/12/29 08:06:25;;;;;;;1.70;1.60;;;20.40;46.30;;;;;;5037317;28;20487;-67
2020/12/29 08:08:59;;;;;;;2.03;1.93;;;20.40;46.40;;;;;;5033779;28;20485;-68
2020/12/29 08:11:25;;;;;;;1.73;1.63;;;20.40;46.30;;;;;;5029508;28;22108;-67
2020/12/29 08:13:51;;;;;;;1.53;1.30;;;20.40;46.30;;;;;;5037159;28;20619;-67
2020/12/29 08:16:21;;;;;;;1.80;1.70;;;20.30;46.20;;;;;;5046356;28;20496;-66
2020/12/29 08:18:48;;;;;;;1.77;1.77;;;20.30;46.30;;;;;;5056380;28;21005;-66
2020/12/29 08:21:14;;;;;;;1.80;1.80;;;20.30;46.40;;;;;;5056718;28;20564;-67
2020/12/29 08:23:41;;;;;;;1.70;1.60;;;20.30;46.40;;;;;;5055106;28;20482;-67
2020/12/29 08:26:07;;;;;;;1.80;1.70;;;20.30;46.40;;;;;;5053168;28;20495;-67
2020/12/29 08:28:33;;;;;;;1.93;1.70;;;20.30;46.50;;;;;;5059322;28;20485;-66
2020/12/29 08:31:01;;;;;;;1.90;1.80;;;20.30;46.50;;;;;;5056389;28;20478;-67
2020/12/29 08:33:27;;;;;;;1.97;1.90;;;20.30;46.70;;;;;;5055012;28;20999;-67
2020/12/29 08:35:55;;;;;;;1.70;1.70;;;20.30;46.60;;;;;;5056065;28;20997;-67
2020/12/29 08:38:50;;;;;;;1.67;1.57;;;20.30;46.60;;;;;;5047952;28;20491;-66
2020/12/29 08:41:21;;;;;;;1.57;1.57;;;20.30;46.80;;;;;;5054545;28;20532;-68
2020/12/29 08:43:48;;;;;;;1.67;1.63;;;20.30;46.80;;;;;;5056123;28;20485;-67
2020/12/29 08:46:15;;;;;;;1.80;1.80;;;20.30;46.90;;;;;;5055982;28;20985;-68
2020/12/29 08:48:47;;;;;;;1.50;1.50;;;20.30;46.90;;;;;;5057063;28;20478;-66
2020/12/29 08:51:18;;;;;;;1.73;1.63;;;20.30;46.90;;;;;;5051642;28;20494;-66
2020/12/29 08:53:44;;;;;;;1.80;1.70;;;20.30;46.90;;;;;;5062307;28;20504;-68
2020/12/29 08:56:21;;;;;;;2.30;2.20;;;20.30;46.90;;;;;;5056542;28;20592;-66
2020/12/29 08:58:47;;;;;;;1.70;1.70;;;20.20;46.80;;;;;;5038803;28;20482;-67
2020/12/29 09:01:30;;;;;;;1.97;1.97;;;20.20;46.80;;;;;;5056636;28;20504;-67
2020/12/29 09:03:56;;;;;;;1.90;1.80;;;20.20;46.80;;;;;;5058021;28;20496;-68
2020/12/29 09:06:23;;;;;;;1.80;1.70;;;20.20;46.80;;;;;;5052273;28;20479;-67
2020/12/29 09:08:49;;;;;;;2.50;2.40;;;20.20;46.80;;;;;;5068850;28;20477;-67
2020/12/29 09:11:15;;;;;;;4.87;2.00;;;20.20;46.80;;;;;;5044108;28;20493;-66
2020/12/29 09:14:02;;;;;;;2.50;2.40;;;20.30;46.90;;;;;;5049122;28;21308;-68
2020/12/29 09:16:28;;;;;;;1.37;1.37;;;20.20;46.80;;;;;;5030613;28;20494;-68
2020/12/29 09:18:55;;;;;;;2.10;2.00;;;20.20;46.80;;;;;;5048571;28;20486;-66
2020/12/29 09:21:22;;;;;;;2.50;1.80;;;20.20;46.80;;;;;;5048401;28;21024;-67
2020/12/29 09:23:58;;;;;;;2.43;2.23;;;20.20;46.80;;;;;;5058619;28;20477;-66
2020/12/29 09:26:25;;;;;;;1.97;1.97;;;20.20;46.80;;;;;;5053503;28;20830;-67
2020/12/29 09:28:51;;;;;;;2.30;2.20;;;20.20;46.80;;;;;;5054457;28;21590;-67
2020/12/29 09:31:22;;;;;;;1.80;1.80;;;20.20;46.80;;;;;;5052732;28;20484;-67
2020/12/29 09:33:48;;;;;;;1.70;1.70;;;20.10;46.70;;;;;;5045552;28;20483;-66
2020/12/29 09:36:18;;;;;;;1.80;1.70;;;20.10;46.70;;;;;;5037756;28;21171;-66
2020/12/29 09:38:47;;;;;;;2.70;2.50;;;20.10;46.70;;;;;;5054228;28;20477;-67
2020/12/29 09:41:13;;;;;;;2.70;2.50;;;20.10;46.70;;;;;;5058005;28;20490;-67
2020/12/29 09:43:39;;;;;;;1.87;1.77;;;20.10;46.70;;;;;;5058203;28;20481;-65
2020/12/29 09:46:05;;;;;;;2.37;2.17;;;20.10;46.80;;;;;;5055251;28;21009;-67
2020/12/29 09:48:31;;;;;;;2.37;2.17;;;20.20;46.80;;;;;;5056309;28;20856;-66
2020/12/29 09:50:58;;;;;;;1.70;1.60;;;20.10;47.00;;;;;;5061852;28;20902;-66
2020/12/29 09:53:24;;;;;;;1.57;1.50;;;20.20;47.20;;;;;;5058386;28;20513;-66
2020/12/29 09:55:51;;;;;;;1.90;1.80;;;20.20;47.20;;;;;;5057324;28;20474;-66
2020/12/29 09:58:17;;;;;;;1.97;1.87;;;20.20;47.10;;;;;;5055985;28;20494;-67
2020/12/29 10:00:43;;;;;;;2.00;1.90;;;20.10;47.10;;;;;;5054054;28;21492;-68
2020/12/29 10:03:09;;;;;;;1.73;1.63;;;20.10;47.10;;;;;;5057088;28;20949;-66
2020/12/29 10:05:35;;;;;;;2.13;2.03;;;20.10;47.00;;;;;;5058116;28;20474;-67
2020/12/29 10:08:01;;;;;;;1.53;1.53;;;20.10;46.80;;;;;;5057807;28;20489;-66
2020/12/29 10:10:28;;;;;;;1.83;1.73;;;20.10;46.90;;;;;;5057133;28;20477;-67
2020/12/29 10:12:56;;;;;;;1.93;1.83;;;20.10;47.00;;;;;;5055399;28;20470;-66
2020/12/29 10:15:22;;;;;;;2.00;2.00;;;20.10;47.00;;;;;;5056426;28;20481;-67
2020/12/29 10:17:48;;;;;;;1.87;1.77;;;20.10;47.10;;;;;;5052478;28;20488;-67
2020/12/29 10:20:14;;;;;;;1.73;1.60;;;20.10;47.00;;;;;;5058681;28;20482;-67
2020/12/29 10:22:40;;;;;;;1.67;1.60;;;20.00;47.10;;;;;;5056949;28;20485;-66
2020/12/29 10:25:10;;;;;;;1.77;1.67;;;20.00;47.10;;;;;;5057233;28;20647;-67
2020/12/29 10:27:36;;;;;;;2.07;1.97;;;20.10;47.10;;;;;;5055941;28;20493;-66
2020/12/29 10:30:03;;;;;;;1.73;1.63;;;20.00;47.00;;;;;;5055151;28;20476;-67
2020/12/29 10:32:29;;;;;;;1.67;1.57;;;20.00;47.10;;;;;;5038324;28;20523;-66
2020/12/29 10:34:55;;;;;;;1.30;1.30;;;20.10;47.00;;;;;;5060849;28;20485;-67
2020/12/29 10:37:22;;;;;;;1.97;1.87;;;20.10;48.00;;;;;;5052879;28;21013;-66
2020/12/29 10:39:48;;;;;;;1.60;1.60;;;20.10;47.20;;;;;;5051549;28;20469;-66
2020/12/29 10:42:14;;;;;;;1.33;1.30;;;20.10;47.20;;;;;;5044629;28;20489;-67
2020/12/29 10:44:40;;;;;;;1.57;1.57;;;20.10;47.20;;;;;;5063490;28;20486;-67
2020/12/29 10:47:07;;;;;;;1.90;1.80;;;20.10;47.10;;;;;;5055082;28;20861;-67
2020/12/29 10:49:33;;;;;;;1.30;1.30;;;20.10;47.00;;;;;;5042004;28;20475;-67
2020/12/29 10:52:00;;;;;;;1.70;1.60;;;20.10;47.10;;;;;;5036559;28;20832;-66
2020/12/29 10:54:26;;;;;;;1.63;1.63;;;20.10;47.00;;;;;;5036487;28;20478;-67
2020/12/29 10:56:52;;;;;;;1.53;1.53;;;20.10;46.90;;;;;;5046807;28;20481;-67
2020/12/29 10:59:18;;;;;;;1.40;1.40;;;20.00;46.80;;;;;;5056233;28;20497;-67
2020/12/29 11:01:44;;;;;;;1.80;1.80;;;20.00;46.90;;;;;;5057008;28;20504;-67
2020/12/29 11:04:11;;;;;;;1.70;1.60;;;20.00;46.90;;;;;;5057723;28;20496;-67
2020/12/29 11:06:37;;;;;;;1.73;1.63;;;20.00;47.10;;;;;;5056371;28;20478;-67
2020/12/29 11:09:04;;;;;;;1.87;1.77;;;20.10;47.00;;;;;;5057563;28;20489;-67
2020/12/29 11:11:30;;;;;;;1.47;1.37;;;20.10;47.10;;;;;;5056346;28;20507;-66
2020/12/29 11:13:56;;;;;;;1.67;1.63;;;20.10;47.10;;;;;;5056173;28;20485;-67
2020/12/29 11:16:22;;;;;;;1.30;1.30;;;20.10;47.20;;;;;;5055011;28;20489;-67
2020/12/29 11:18:49;;;;;;;1.07;1.07;;;20.10;47.20;;;;;;5050856;28;20480;-67
2020/12/29 11:21:16;;;;;;;1.80;1.80;;;20.10;47.30;;;;;;5057249;28;20490;-68
2020/12/29 11:23:42;;;;;;;1.20;1.20;;;20.10;47.10;;;;;;5056451;28;20478;-68
2020/12/29 11:26:09;;;;;;;1.60;1.50;;;20.10;47.10;;;;;;5054880;28;20485;-68
2020/12/29 11:28:35;;;;;;;1.43;1.37;;;20.10;46.90;;;;;;5055871;28;20851;-67
2020/12/29 11:31:01;;;;;;;1.23;1.13;;;20.10;47.10;;;;;;5049666;28;20504;-69
2020/12/29 11:33:27;;;;;;;1.70;1.30;;;20.10;47.10;;;;;;5059504;28;20481;-67
2020/12/29 11:35:53;;;;;;;1.70;1.60;;;20.10;47.20;;;;;;5055993;28;20490;-67
2020/12/29 11:38:21;;;;;;;1.27;1.27;;;20.10;47.30;;;;;;5056324;28;20489;-67
2020/12/29 11:40:47;;;;;;;2.00;1.90;;;20.10;47.10;;;;;;5056157;28;20489;-67
2020/12/29 11:43:14;;;;;;;1.73;1.63;;;20.10;47.20;;;;;;5055914;28;20537;-67
2020/12/29 11:45:40;;;;;;;1.13;1.13;;;20.10;47.10;;;;;;5056117;28;20474;-67
2020/12/29 11:48:06;;;;;;;1.37;1.37;;;20.00;47.20;;;;;;5051231;28;20535;-68
2020/12/29 11:50:33;;;;;;;1.70;1.60;;;20.00;47.10;;;;;;5056532;28;20488;-68
2020/12/29 11:52:59;;;;;;;1.77;1.67;;;20.00;47.10;;;;;;5053523;28;21121;-68
2020/12/29 11:55:26;;;;;;;1.10;1.10;;;20.00;47.10;;;;;;5046019;28;20504;-67
2020/12/29 11:57:52;;;;;;;1.33;1.13;;;20.00;47.10;;;;;;5058374;28;20485;-68
2020/12/29 12:00:18;;;;;;;1.50;1.40;;;20.00;47.10;;;;;;5056598;28;20485;-68
2020/12/29 12:02:44;;;;;;;1.47;1.37;;;20.00;47.20;;;;;;5056394;28;20478;-67
2020/12/29 12:05:11;;;;;;;1.63;1.53;;;20.00;47.20;;;;;;5055736;28;20489;-67
2020/12/29 12:07:37;;;;;;;1.10;1.10;;;19.90;47.10;;;;;;5056169;28;21056;-68
2020/12/29 12:10:03;;;;;;;1.73;1.60;;;20.00;47.30;;;;;;5056727;28;20517;-68
2020/12/29 12:12:30;;;;;;;1.70;1.60;;;19.90;47.10;;;;;;5042672;28;21080;-67
2020/12/29 12:14:56;;;;;;;1.30;1.30;;;20.00;47.30;;;;;;5058227;28;20473;-68
2020/12/29 12:17:23;;;;;;;1.20;1.10;;;19.90;47.20;;;;;;5056159;28;20492;-66
2020/12/29 12:19:49;;;;;;;1.13;1.13;;;19.90;47.20;;;;;;5054791;28;20527;-67
2020/12/29 12:22:15;;;;;;;1.03;1.03;;;19.90;47.30;;;;;;5057997;28;20489;-67
2020/12/29 12:24:41;;;;;;;1.50;1.40;;;19.90;47.40;;;;;;5060949;28;20985;-67
2020/12/29 12:27:08;;;;;;;1.40;1.40;;;19.90;47.20;;;;;;5059854;28;21012;-68
2020/12/29 12:29:38;;;;;;;1.40;1.30;;;20.00;47.30;;;;;;5062294;28;20478;-67
2020/12/29 12:32:05;;;;;;;1.13;1.13;;;20.00;47.30;;;;;;5045815;28;20909;-67
2020/12/29 12:34:31;;;;;;;1.07;1.07;;;19.90;47.40;;;;;;5062928;28;20492;-67
2020/12/29 12:36:57;;;;;;;1.63;1.33;;;19.90;47.30;;;;;;5050801;28;20473;-67
2020/12/29 12:39:23;;;;;;;1.30;1.20;;;20.00;47.40;;;;;;5063787;28;20509;-67
2020/12/29 12:41:49;;;;;;;1.47;1.37;;;20.00;47.40;;;;;;5060125;28;20470;-67
2020/12/29 12:44:16;;;;;;;1.40;1.40;;;20.00;47.20;;;;;;5058988;28;20489;-66
2020/12/29 12:46:43;;;;;;;1.00;1.00;;;20.00;47.10;;;;;;5058385;28;20485;-67